createdAt,value
2022-08-26T00:00:59.632Z,95655.31
2022-08-26T00:03:02.485Z,95656.56
2022-08-26T00:05:06.362Z,95664.88
2022-08-26T00:07:09.347Z,95662.41
2022-08-26T00:09:12.125Z,95652.53
2022-08-26T00:11:15.561Z,95659.53
2022-08-26T00:13:30.367Z,95659.75
2022-08-26T00:15:33.728Z,95655.28
2022-08-26T00:17:40.188Z,95638.78
2022-08-26T00:19:43.246Z,95646.44
2022-08-26T00:21:46.085Z,95646.78
2022-08-26T00:23:48.937Z,95654.16
2022-08-26T00:25:51.773Z,95654.41
2022-08-26T00:27:54.827Z,95648.75
2022-08-26T00:29:58.798Z,95638.75
2022-08-26T00:32:04.068Z,95636.25
2022-08-26T00:34:09.604Z,95628.47
2022-08-26T00:36:20.122Z,95643.09
2022-08-26T00:38:23.947Z,95635.41
2022-08-26T00:40:30.163Z,95640.13
2022-08-26T00:42:33.046Z,95641.47
2022-08-26T00:44:35.897Z,95635.75
2022-08-26T00:46:46.498Z,95644.25
2022-08-26T00:48:53.476Z,95653.88
2022-08-26T00:51:01.708Z,95652.78
2022-08-26T00:53:21.444Z,95646.63
2022-08-26T00:55:37.726Z,95653.69
2022-08-26T00:57:41.240Z,95617.91
2022-08-26T00:59:46.878Z,95654.97
2022-08-26T01:01:51.489Z,95655.91
2022-08-26T01:03:55.458Z,95651.97
2022-08-26T01:06:02.299Z,95595.59
2022-08-26T01:08:07.040Z,95659.28
2022-08-26T01:10:16.174Z,95664.34
2022-08-26T01:12:22.013Z,95663.50
2022-08-26T01:14:27.743Z,95665.78
2022-08-26T01:16:33.146Z,95668.59
2022-08-26T01:18:36.813Z,95667.63
2022-08-26T01:20:50.225Z,95668.13
2022-08-26T01:22:58.414Z,95665.31
2022-08-26T01:25:06.428Z,95661.31
2022-08-26T01:27:13.630Z,95654.69
2022-08-26T01:29:20.197Z,95660.16
2022-08-26T01:31:25.811Z,95574.81
2022-08-26T01:33:39.967Z,95657.72
2022-08-26T01:35:45.729Z,95659.13
2022-08-26T01:37:50.596Z,95609.91
2022-08-26T01:39:58.904Z,95465.97
2022-08-26T01:42:03.369Z,95660.84
2022-08-26T01:44:09.747Z,95663.22
2022-08-26T01:46:14.705Z,95679.44
2022-08-26T01:48:25.075Z,95670.91
2022-08-26T01:50:31.476Z,95672.19
2022-08-26T01:52:39.426Z,95665.50
2022-08-26T01:54:42.586Z,95657.47
2022-08-26T01:56:51.995Z,95665.00
2022-08-26T01:58:58.502Z,95669.63
2022-08-26T02:01:01.478Z,95668.28
2022-08-26T02:03:21.525Z,95665.53
2022-08-26T02:05:24.970Z,95668.38
2022-08-26T02:07:29.143Z,95663.63
2022-08-26T02:09:32.420Z,95661.97
2022-08-26T02:11:41.445Z,95668.69
2022-08-26T02:13:49.481Z,95650.16
2022-08-26T02:15:55.165Z,95672.28
2022-08-26T02:17:58.134Z,95672.25
2022-08-26T02:20:00.994Z,95673.72
2022-08-26T02:22:06.931Z,95658.88
2022-08-26T02:24:12.675Z,95679.66
2022-08-26T02:26:19.385Z,95668.66
2022-08-26T02:28:22.952Z,95669.19
2022-08-26T02:30:33.591Z,95672.81
2022-08-26T02:32:37.222Z,95664.75
2022-08-26T02:34:43.035Z,95667.31
2022-08-26T02:36:45.849Z,95670.31
2022-08-26T02:38:49.144Z,95661.19
2022-08-26T02:40:55.139Z,95665.78
2022-08-26T02:42:58.303Z,95663.97
2022-08-26T02:45:03.227Z,95608.00
2022-08-26T02:47:09.406Z,95665.44
2022-08-26T02:49:12.567Z,95660.16
2022-08-26T02:51:15.443Z,95663.59
2022-08-26T02:53:24.496Z,95656.38
2022-08-26T02:55:27.953Z,95649.66
2022-08-26T02:57:30.956Z,95655.53
2022-08-26T02:59:35.910Z,95652.78
2022-08-26T03:01:38.685Z,95643.56
2022-08-26T03:03:42.800Z,95517.28
2022-08-26T03:05:45.559Z,95656.16
2022-08-26T03:07:48.679Z,95651.38
2022-08-26T03:09:52.939Z,95645.84
2022-08-26T03:11:56.022Z,95649.47
2022-08-26T03:14:00.471Z,95648.31
2022-08-26T03:16:05.589Z,95648.53
2022-08-26T03:18:08.659Z,95645.72
2022-08-26T03:20:13.612Z,95648.44
2022-08-26T03:22:18.213Z,95656.00
2022-08-26T03:24:23.276Z,95649.56
2022-08-26T03:26:29.204Z,95650.53
2022-08-26T03:28:32.841Z,95648.66
2022-08-26T03:30:45.220Z,95644.19
2022-08-26T03:32:48.570Z,95631.34
2022-08-26T03:34:51.400Z,95654.19
2022-08-26T03:36:55.632Z,95650.63
2022-08-26T03:38:59.381Z,95650.06
2022-08-26T03:41:02.588Z,95654.84
2022-08-26T03:43:09.814Z,95616.63
2022-08-26T03:45:14.036Z,95623.34
2022-08-26T03:47:17.788Z,95648.00
2022-08-26T03:49:20.532Z,95649.28
2022-08-26T03:51:23.400Z,95647.00
2022-08-26T03:53:28.705Z,95644.88
2022-08-26T03:55:33.372Z,95653.13
2022-08-26T03:57:36.320Z,95648.38
2022-08-26T03:59:39.060Z,95644.97
2022-08-26T04:01:44.229Z,95652.81
2022-08-26T04:04:00.156Z,95655.44
2022-08-26T04:06:03.516Z,95650.00
2022-08-26T04:08:06.927Z,95647.41
2022-08-26T04:10:12.748Z,95647.03
2022-08-26T04:12:15.733Z,95641.28
2022-08-26T04:14:21.535Z,95646.91
2022-08-26T04:16:24.348Z,95648.16
2022-08-26T04:18:36.888Z,95628.75
2022-08-26T04:20:40.117Z,95648.03
2022-08-26T04:22:43.052Z,95638.56
2022-08-26T04:24:46.387Z,95636.47
2022-08-26T04:26:50.794Z,95641.47
2022-08-26T04:28:55.952Z,95639.84
2022-08-26T04:30:59.145Z,95641.78
2022-08-26T04:33:04.436Z,95636.75
2022-08-26T04:35:16.223Z,95631.66
2022-08-26T04:37:19.709Z,95636.81
2022-08-26T04:39:25.281Z,95632.59
2022-08-26T04:41:28.379Z,95631.94
2022-08-26T04:43:36.959Z,95632.25
2022-08-26T04:45:43.644Z,95446.47
2022-08-26T04:47:46.738Z,95629.66
2022-08-26T04:49:49.513Z,95635.56
2022-08-26T04:51:53.450Z,95633.97
2022-08-26T04:53:57.189Z,95637.00
2022-08-26T04:56:00.284Z,95642.13
2022-08-26T04:58:02.996Z,95638.59
2022-08-26T05:00:11.855Z,95636.50
2022-08-26T05:02:15.795Z,95643.38
2022-08-26T05:04:20.112Z,95640.97
2022-08-26T05:06:22.908Z,95642.91
2022-08-26T05:08:25.988Z,95645.13
2022-08-26T05:10:28.993Z,95650.72
2022-08-26T05:12:33.065Z,95644.75
2022-08-26T05:14:36.194Z,95645.56
2022-08-26T05:16:40.979Z,95646.69
2022-08-26T05:18:45.681Z,95653.25
2022-08-26T05:20:51.732Z,95461.25
2022-08-26T05:22:57.398Z,95649.72
2022-08-26T05:25:00.126Z,95551.00
2022-08-26T05:27:03.076Z,95651.31
2022-08-26T05:29:10.329Z,95651.94
2022-08-26T05:31:15.635Z,95652.44
2022-08-26T05:33:23.228Z,95655.16
2022-08-26T05:35:31.890Z,95604.06
2022-08-26T05:37:34.649Z,95661.63
2022-08-26T05:39:38.412Z,95659.06
2022-08-26T05:41:44.789Z,95668.53
2022-08-26T05:43:47.656Z,95659.63
2022-08-26T05:45:51.917Z,95666.69
2022-08-26T05:47:54.857Z,95664.16
2022-08-26T05:49:59.006Z,95659.50
2022-08-26T05:52:02.045Z,95613.88
2022-08-26T05:54:06.632Z,95666.31
2022-08-26T05:56:11.213Z,95663.75
2022-08-26T05:58:14.528Z,95670.97
2022-08-26T06:00:20.453Z,95667.00
2022-08-26T06:02:23.897Z,95590.63
2022-08-26T06:04:28.088Z,95667.50
2022-08-26T06:06:35.827Z,95597.59
2022-08-26T06:08:39.419Z,95667.22
2022-08-26T06:10:47.651Z,95683.94
2022-08-26T06:12:51.255Z,95637.06
2022-08-26T06:14:55.011Z,95658.91
2022-08-26T06:16:58.120Z,95675.50
2022-08-26T06:19:00.962Z,95676.00
2022-08-26T06:21:14.580Z,95677.59
2022-08-26T06:23:37.964Z,95671.16
2022-08-26T06:25:43.473Z,95676.97
2022-08-26T06:27:46.248Z,95651.09
2022-08-26T06:29:49.071Z,95671.47
2022-08-26T06:31:52.024Z,95683.50
2022-08-26T06:33:55.786Z,95681.25
2022-08-26T06:35:59.028Z,95687.34
2022-08-26T06:38:02.732Z,95697.78
2022-08-26T06:40:09.451Z,95691.94
2022-08-26T06:42:14.344Z,95697.72
2022-08-26T06:44:18.306Z,95692.72
2022-08-26T06:46:22.926Z,95690.94
2022-08-26T06:48:25.744Z,95691.88
2022-08-26T06:50:29.822Z,95629.63
2022-08-26T06:52:33.026Z,95696.34
2022-08-26T06:54:43.008Z,95697.28
2022-08-26T06:56:47.907Z,95694.16
2022-08-26T06:58:51.354Z,95704.31
2022-08-26T07:00:54.103Z,95644.56
2022-08-26T07:02:56.957Z,95648.97
2022-08-26T07:04:59.773Z,95700.59
2022-08-26T07:07:02.634Z,95702.91
2022-08-26T07:09:09.799Z,95703.69
2022-08-26T07:11:13.911Z,95711.03
2022-08-26T07:13:18.235Z,95696.16
2022-08-26T07:15:35.792Z,95703.69
2022-08-26T07:17:38.780Z,95698.09
2022-08-26T07:19:43.446Z,95702.38
2022-08-26T07:21:46.287Z,95706.75
2022-08-26T07:23:50.651Z,95319.34
2022-08-26T07:25:53.395Z,95698.25
2022-08-26T07:27:56.467Z,95704.31
2022-08-26T07:30:01.091Z,95705.38
2022-08-26T07:32:05.096Z,95704.63
2022-08-26T07:34:09.329Z,95704.00
2022-08-26T07:36:14.739Z,95665.44
2022-08-26T07:38:17.575Z,95705.41
2022-08-26T07:40:20.568Z,95708.72
2022-08-26T07:42:23.519Z,95705.84
2022-08-26T07:44:27.771Z,95625.38
2022-08-26T07:46:31.937Z,95707.69
2022-08-26T07:48:36.021Z,95709.75
2022-08-26T07:50:49.224Z,95711.38
2022-08-26T07:52:53.536Z,95706.78
2022-08-26T07:54:57.994Z,95711.34
2022-08-26T07:57:00.850Z,95666.28
2022-08-26T07:59:13.675Z,95702.28
2022-08-26T08:01:16.980Z,95707.66
2022-08-26T08:03:21.591Z,95706.03
2022-08-26T08:05:27.302Z,95705.06
2022-08-26T08:07:45.005Z,95706.88
2022-08-26T08:09:49.587Z,95709.16
2022-08-26T08:11:53.660Z,95676.56
2022-08-26T08:13:56.966Z,95709.88
2022-08-26T08:16:00.517Z,95709.25
2022-08-26T08:18:03.383Z,95711.25
2022-08-26T08:20:09.534Z,95707.75
2022-08-26T08:22:17.828Z,95705.63
2022-08-26T08:24:22.644Z,95704.28
2022-08-26T08:26:27.464Z,95709.25
2022-08-26T08:28:30.359Z,95673.03
2022-08-26T08:30:33.274Z,95694.44
2022-08-26T08:32:39.186Z,95702.75
2022-08-26T08:36:53.266Z,95707.59
2022-08-26T08:38:56.833Z,95703.63
2022-08-26T08:41:01.391Z,95690.22
2022-08-26T08:43:13.529Z,95693.19
2022-08-26T08:45:21.109Z,95694.13
2022-08-26T08:47:32.149Z,95690.56
2022-08-26T08:49:35.608Z,95684.53
2022-08-26T08:51:43.578Z,95688.03
2022-08-26T08:53:50.752Z,95696.06
2022-08-26T08:56:06.123Z,95536.25
2022-08-26T08:58:17.043Z,95690.38
2022-08-26T09:00:30.339Z,95683.50
2022-08-26T09:02:40.163Z,95649.34
2022-08-26T09:05:06.628Z,95684.91
2022-08-26T09:07:14.538Z,95684.47
2022-08-26T09:09:24.896Z,95625.97
2022-08-26T09:11:28.062Z,95677.53
2022-08-26T09:13:31.907Z,95609.66
2022-08-26T09:15:47.862Z,95679.38
2022-08-26T09:18:01.590Z,95672.88
2022-08-26T09:20:19.206Z,95680.56
2022-08-26T09:22:33.253Z,95670.38
2022-08-26T09:24:42.009Z,95670.72
2022-08-26T09:26:52.648Z,95629.13
2022-08-26T09:28:58.021Z,95659.72
2022-08-26T09:31:11.766Z,95639.09
2022-08-26T09:33:18.539Z,95534.38
2022-08-26T09:35:27.098Z,95661.91
2022-08-26T09:37:43.505Z,95572.16
2022-08-26T09:39:48.219Z,95653.34
2022-08-26T09:42:04.620Z,95651.44
2022-08-26T09:44:17.620Z,95650.78
2022-08-26T09:46:27.567Z,95649.69
2022-08-26T09:48:36.123Z,95651.31
2022-08-26T09:50:41.378Z,95641.88
2022-08-26T09:52:46.183Z,95642.75
2022-08-26T09:55:06.120Z,95638.81
2022-08-26T09:57:22.271Z,95638.03
2022-08-26T09:59:31.555Z,95630.81
2022-08-26T10:01:37.880Z,95638.47
2022-08-26T10:03:41.772Z,95627.78
2022-08-26T10:05:55.259Z,95615.91
2022-08-26T10:08:00.210Z,95617.50
2022-08-26T10:10:09.289Z,95616.72
2022-08-26T10:12:17.600Z,95608.34
2022-08-26T10:14:25.415Z,95599.22
2022-08-26T10:16:33.537Z,95599.22
2022-08-26T10:18:41.302Z,95580.59
2022-08-26T10:20:54.069Z,95585.34
2022-08-26T10:23:02.726Z,95619.09
2022-08-26T10:25:13.507Z,95539.31
2022-08-26T10:27:26.841Z,95586.94
2022-08-26T10:29:36.834Z,95587.72
2022-08-26T10:31:42.416Z,95590.91
2022-08-26T10:33:45.394Z,95588.88
2022-08-26T10:35:52.720Z,95570.97
2022-08-26T10:37:59.223Z,95587.88
2022-08-26T10:40:08.638Z,95591.38
2022-08-26T10:42:22.863Z,95580.91
2022-08-26T10:44:27.582Z,95580.09
2022-08-26T10:46:39.673Z,95577.38
2022-08-26T10:48:48.969Z,95571.44
2022-08-26T10:50:57.874Z,95576.19
2022-08-26T10:53:08.770Z,95570.69
2022-08-26T10:55:18.149Z,95573.44
2022-08-26T10:57:30.122Z,95571.47
2022-08-26T10:59:51.689Z,95574.19
2022-08-26T11:02:00.756Z,95571.69
2022-08-26T11:04:14.999Z,95566.41
2022-08-26T11:06:26.091Z,95570.75
2022-08-26T11:08:30.399Z,95579.59
2022-08-26T11:10:58.889Z,95578.94
2022-08-26T11:13:04.696Z,95569.03
2022-08-26T11:15:08.238Z,95591.22
2022-08-26T11:17:12.552Z,95580.50
2022-08-26T11:20:00.289Z,95584.22
2022-08-26T11:22:07.140Z,95546.81
2022-08-26T11:24:09.949Z,95582.34
2022-08-26T11:26:20.397Z,95563.50
2022-08-26T11:28:44.184Z,95608.38
2022-08-26T11:30:56.885Z,95596.31
2022-08-26T11:33:01.210Z,95601.03
2022-08-26T11:35:06.571Z,95596.41
2022-08-26T11:37:16.716Z,95590.31
2022-08-26T11:39:25.544Z,95593.78
2022-08-26T11:41:31.331Z,95599.44
2022-08-26T11:43:35.468Z,95596.22
2022-08-26T11:45:42.734Z,95593.88
2022-08-26T11:47:46.575Z,95598.44
2022-08-26T11:50:06.412Z,95595.09
2022-08-26T11:52:12.369Z,95604.00
2022-08-26T11:54:18.172Z,95599.81
2022-08-26T11:56:40.453Z,95606.25
2022-08-26T11:58:45.542Z,95606.31
2022-08-26T12:00:53.787Z,95603.13
2022-08-26T12:03:02.303Z,95549.38
2022-08-26T12:05:07.847Z,95597.03
2022-08-26T12:07:11.959Z,95597.81
2022-08-26T12:09:21.179Z,95588.06
2022-08-26T12:11:26.339Z,95594.28
2022-08-26T12:13:29.229Z,95599.19
2022-08-26T12:15:35.474Z,95594.34
2022-08-26T12:17:40.709Z,95610.78
2022-08-26T12:19:44.231Z,95604.53
2022-08-26T12:21:49.164Z,95589.06
2022-08-26T12:23:54.559Z,95588.66
2022-08-26T12:26:06.375Z,95530.91
2022-08-26T12:28:10.728Z,95587.72
2022-08-26T12:30:19.925Z,95592.50
2022-08-26T12:32:25.332Z,95603.00
2022-08-26T12:34:29.503Z,95603.22
2022-08-26T12:36:36.132Z,95608.22
2022-08-26T12:38:40.439Z,95596.63
2022-08-26T12:40:45.181Z,95590.53
2022-08-26T12:42:47.885Z,95588.31
2022-08-26T12:44:59.300Z,95578.53
2022-08-26T12:47:08.159Z,95584.44
2022-08-26T12:49:11.035Z,95590.19
2022-08-26T12:51:23.865Z,95587.44
2022-08-26T12:53:28.836Z,95587.91
2022-08-26T12:55:39.105Z,95550.44
2022-08-26T12:57:42.063Z,95579.34
2022-08-26T12:59:44.841Z,95579.72
2022-08-26T13:01:48.503Z,95581.44
2022-08-26T13:03:51.877Z,95572.91
2022-08-26T13:06:08.646Z,95574.88
2022-08-26T13:08:27.203Z,95565.50
2022-08-26T13:10:36.391Z,95560.03
2022-08-26T13:12:40.990Z,95559.97
2022-08-26T13:14:43.723Z,95561.47
2022-08-26T13:16:46.901Z,95560.75
2022-08-26T13:18:51.400Z,95507.91
2022-08-26T13:20:54.387Z,95554.75
2022-08-26T13:22:58.725Z,95551.78
2022-08-26T13:25:05.688Z,95543.75
2022-08-26T13:27:10.332Z,95535.91
2022-08-26T13:29:13.714Z,95527.69
2022-08-26T13:31:17.417Z,95524.09
2022-08-26T13:33:22.688Z,95522.06
2022-08-26T13:35:25.490Z,95529.63
2022-08-26T13:37:34.427Z,95526.59
2022-08-26T13:39:38.144Z,95516.69
2022-08-26T13:41:43.195Z,95522.25
2022-08-26T13:43:45.966Z,95525.31
2022-08-26T13:45:49.418Z,95488.00
2022-08-26T13:47:52.253Z,95481.53
2022-08-26T13:49:55.020Z,95514.19
2022-08-26T13:51:57.775Z,95519.44
2022-08-26T13:54:01.416Z,95519.69
2022-08-26T13:56:06.954Z,95527.59
2022-08-26T13:58:14.039Z,95523.69
2022-08-26T14:00:17.849Z,95532.16
2022-08-26T14:02:20.722Z,95453.72
2022-08-26T14:04:27.342Z,95512.03
2022-08-26T14:06:30.428Z,95512.13
2022-08-26T14:08:33.283Z,95509.88
2022-08-26T14:10:36.791Z,95501.94
2022-08-26T14:12:40.782Z,95501.22
2022-08-26T14:14:44.986Z,95505.00
2022-08-26T14:16:56.093Z,95423.75
2022-08-26T14:19:05.693Z,95498.16
2022-08-26T14:21:10.239Z,95496.03
2022-08-26T14:23:14.237Z,95477.66
2022-08-26T14:25:17.882Z,95476.66
2022-08-26T14:27:20.620Z,95474.38
2022-08-26T14:29:23.409Z,95475.16
2022-08-26T14:31:29.000Z,95474.53
2022-08-26T14:33:34.857Z,95488.66
2022-08-26T14:35:37.666Z,95474.34
2022-08-26T14:37:40.481Z,95493.06
2022-08-26T14:39:43.271Z,95490.53
2022-08-26T14:41:54.070Z,95495.06
2022-08-26T14:44:01.419Z,95498.19
2022-08-26T14:46:05.057Z,95498.59
2022-08-26T14:48:09.627Z,95434.72
2022-08-26T14:50:14.239Z,95494.47
2022-08-26T14:52:17.513Z,95501.00
2022-08-26T14:54:20.644Z,95508.66
2022-08-26T14:56:23.674Z,95502.16
2022-08-26T14:58:28.592Z,95495.97
2022-08-26T15:00:38.208Z,95509.84
2022-08-26T15:02:41.330Z,95501.59
2022-08-26T15:04:45.568Z,95508.16
2022-08-26T15:06:48.770Z,95468.69
2022-08-26T15:08:51.538Z,95512.09
2022-08-26T15:10:54.293Z,95507.53
2022-08-26T15:12:57.087Z,95513.09
2022-08-26T15:15:00.134Z,95515.97
2022-08-26T15:17:02.956Z,95520.38
2022-08-26T15:19:06.292Z,95521.28
2022-08-26T15:21:10.451Z,95521.84
2022-08-26T15:23:14.653Z,95524.63
2022-08-26T15:25:18.050Z,95528.06
2022-08-26T15:27:21.197Z,95464.34
2022-08-26T15:29:24.883Z,95516.69
2022-08-26T15:31:31.202Z,95498.03
2022-08-26T15:33:34.357Z,95503.97
2022-08-26T15:35:38.488Z,95500.78
2022-08-26T15:37:46.856Z,95498.41
2022-08-26T15:39:50.472Z,95517.00
2022-08-26T15:41:53.268Z,95504.69
2022-08-26T15:43:56.355Z,95524.22
2022-08-26T15:46:00.092Z,95513.53
2022-08-26T15:48:03.417Z,95523.03
2022-08-26T15:50:07.747Z,95522.00
2022-08-26T15:52:10.654Z,95486.81
2022-08-26T15:54:15.964Z,95266.72
2022-08-26T15:56:19.249Z,95522.59
2022-08-26T15:58:23.013Z,95518.84
2022-08-26T16:00:27.504Z,95475.44
2022-08-26T16:02:32.295Z,95516.03
2022-08-26T16:04:35.257Z,95506.84
2022-08-26T16:06:40.462Z,95486.09
2022-08-26T16:08:43.209Z,95469.44
2022-08-26T16:10:50.554Z,95409.50
2022-08-26T16:12:53.813Z,95525.44
2022-08-26T16:14:56.574Z,95531.59
2022-08-26T16:16:59.327Z,95534.22
2022-08-26T16:19:05.624Z,95535.13
2022-08-26T16:21:15.512Z,95536.13
2022-08-26T16:23:18.775Z,95414.09
2022-08-26T16:25:21.693Z,95544.25
2022-08-26T16:27:25.837Z,95552.97
2022-08-26T16:29:28.740Z,95558.19
2022-08-26T16:31:31.699Z,95478.78
2022-08-26T16:33:34.515Z,95571.81
2022-08-26T16:35:37.261Z,95545.31
2022-08-26T16:37:40.277Z,95558.78
2022-08-26T16:39:45.065Z,95528.56
2022-08-26T16:41:48.119Z,95561.75
2022-08-26T16:43:55.069Z,95560.38
2022-08-26T16:45:57.934Z,95571.34
2022-08-26T16:48:00.757Z,95541.91
2022-08-26T16:50:04.336Z,95575.16
2022-08-26T16:52:08.652Z,95573.13
2022-08-26T16:54:11.427Z,95579.66
2022-08-26T16:56:14.656Z,95502.19
2022-08-26T16:58:18.301Z,95580.34
2022-08-26T17:00:27.614Z,95581.81
2022-08-26T17:02:30.486Z,95598.94
2022-08-26T17:04:33.289Z,95564.34
2022-08-26T17:06:36.143Z,95597.75
2022-08-26T17:08:39.226Z,95527.94
2022-08-26T17:12:45.765Z,95586.56
2022-08-26T17:14:48.596Z,95542.34
2022-08-26T17:16:53.544Z,95586.53
2022-08-26T17:18:57.285Z,95539.78
2022-08-26T17:21:01.969Z,95582.69
2022-08-26T17:23:05.274Z,95454.41
2022-08-26T17:25:11.796Z,95585.03
2022-08-26T17:27:14.656Z,95580.69
2022-08-26T17:29:17.428Z,95586.03
2022-08-26T17:31:20.777Z,95582.38
2022-08-26T17:33:25.276Z,95577.75
2022-08-26T17:35:28.226Z,95584.34
2022-08-26T17:37:31.299Z,95581.19
2022-08-26T17:39:34.053Z,95588.53
2022-08-26T17:41:36.813Z,95534.13
2022-08-26T17:43:40.301Z,95592.84
2022-08-26T17:45:43.302Z,95593.38
2022-08-26T17:47:46.103Z,95600.09
2022-08-26T17:49:50.251Z,95589.34
2022-08-26T17:51:53.059Z,95587.06
2022-08-26T17:53:55.872Z,95213.03
2022-08-26T17:55:58.643Z,95587.97
2022-08-26T17:58:03.934Z,95596.72
2022-08-26T18:00:14.542Z,95582.25
2022-08-26T18:02:17.455Z,95601.81
2022-08-26T18:04:20.369Z,95597.31
2022-08-26T18:06:25.771Z,95609.38
2022-08-26T18:08:28.728Z,95614.94
2022-08-26T18:10:31.475Z,95614.34
2022-08-26T18:12:34.336Z,95171.44
2022-08-26T18:14:37.263Z,95591.84
2022-08-26T18:16:41.612Z,95634.03
2022-08-26T18:18:44.624Z,95636.16
2022-08-26T18:21:01.242Z,95635.28
2022-08-26T18:23:06.125Z,95641.16
2022-08-26T18:25:10.241Z,95644.81
2022-08-26T18:27:15.766Z,95647.09
2022-08-26T18:29:20.349Z,95646.84
2022-08-26T18:31:23.213Z,95660.09
2022-08-26T18:33:26.016Z,95665.84
2022-08-26T18:35:30.227Z,95673.38
2022-08-26T18:37:34.135Z,95669.50
2022-08-26T18:39:38.236Z,95635.44
2022-08-26T18:41:43.311Z,95673.16
2022-08-26T18:43:46.067Z,95607.66
2022-08-26T18:45:48.824Z,95677.59
2022-08-26T18:47:51.648Z,95667.66
2022-08-26T18:49:54.810Z,95666.47
2022-08-26T18:51:57.552Z,95665.50
2022-08-26T18:54:02.415Z,95657.16
2022-08-26T18:56:06.866Z,95650.28
2022-08-26T18:58:09.719Z,95646.13
2022-08-26T19:00:14.554Z,95642.63
2022-08-26T19:02:17.600Z,95650.28
2022-08-26T19:04:21.995Z,95650.13
2022-08-26T19:06:27.038Z,95647.66
2022-08-26T19:08:30.148Z,95644.44
2022-08-26T19:10:32.988Z,95642.63
2022-08-26T19:12:37.265Z,95642.41
2022-08-26T19:14:40.096Z,95649.16
2022-08-26T19:16:45.126Z,95598.66
2022-08-26T19:18:48.158Z,95670.63
2022-08-26T19:20:50.861Z,95666.44
2022-08-26T19:22:53.632Z,95626.75
2022-08-26T19:24:56.440Z,95671.09
2022-08-26T19:27:01.586Z,95659.88
2022-08-26T19:29:05.769Z,95698.53
2022-08-26T19:31:12.937Z,95699.44
2022-08-26T19:33:16.811Z,95707.59
2022-08-26T19:35:19.741Z,95721.88
2022-08-26T19:37:23.052Z,95730.72
2022-08-26T19:39:26.438Z,95723.63
2022-08-26T19:41:36.912Z,95640.94
2022-08-26T19:43:40.551Z,95722.03
2022-08-26T19:45:45.223Z,95727.03
2022-08-26T19:47:48.781Z,95727.38
2022-08-26T19:49:54.138Z,95723.56
2022-08-26T19:51:56.923Z,95721.22
2022-08-26T19:54:01.718Z,95708.88
2022-08-26T19:56:04.867Z,95698.28
2022-08-26T19:58:07.961Z,95698.94
2022-08-26T20:00:14.725Z,95691.34
2022-08-26T20:02:19.218Z,95691.00
2022-08-26T20:04:22.293Z,95692.50
2022-08-26T20:06:25.171Z,95530.56
2022-08-26T20:08:28.621Z,95690.72
2022-08-26T20:10:35.193Z,95684.09
2022-08-26T20:12:37.997Z,95697.97
2022-08-26T20:14:40.852Z,95692.25
2022-08-26T20:16:44.588Z,95683.97
2022-08-26T20:19:06.136Z,95686.22
2022-08-26T20:21:27.162Z,95566.66
2022-08-26T20:23:30.152Z,95694.97
2022-08-26T20:25:34.043Z,95690.66
2022-08-26T20:27:38.250Z,95686.88
2022-08-26T20:29:42.960Z,95660.56
2022-08-26T20:31:46.861Z,95695.81
2022-08-26T20:33:51.693Z,95609.94
2022-08-26T20:35:54.640Z,95689.22
2022-08-26T20:37:57.485Z,95693.44
2022-08-26T20:40:00.757Z,95697.63
2022-08-26T20:42:04.328Z,95696.59
2022-08-26T20:44:09.310Z,95702.56
2022-08-26T20:46:18.797Z,95708.88
2022-08-26T20:48:23.546Z,95705.78
2022-08-26T20:50:28.047Z,95533.63
2022-08-26T20:52:30.858Z,95707.53
2022-08-26T20:54:33.667Z,95718.44
2022-08-26T20:56:37.501Z,95729.22
2022-08-26T20:58:41.026Z,95712.63
2022-08-26T21:00:43.992Z,95718.56
2022-08-26T21:02:47.026Z,95689.28
2022-08-26T21:04:49.980Z,95720.25
2022-08-26T21:06:55.401Z,95721.22
2022-08-26T21:08:58.428Z,95720.97
2022-08-26T21:11:01.987Z,95726.09
2022-08-26T21:13:07.762Z,95725.88
2022-08-26T21:15:12.051Z,95656.56
2022-08-26T21:17:15.062Z,95727.16
2022-08-26T21:19:19.886Z,95723.69
2022-08-26T21:21:25.277Z,95723.56
2022-08-26T21:23:29.553Z,95721.97
2022-08-26T21:25:32.380Z,95724.28
2022-08-26T21:27:35.564Z,95724.03
2022-08-26T21:29:38.409Z,95722.84
2022-08-26T21:31:46.010Z,95720.59
2022-08-26T21:33:50.972Z,95717.25
2022-08-26T21:35:54.668Z,95643.69
2022-08-26T21:37:57.429Z,95694.97
2022-08-26T21:40:03.510Z,95704.69
2022-08-26T21:42:06.542Z,95707.84
2022-08-26T21:44:10.103Z,95702.63
2022-08-26T21:46:15.681Z,95711.00
2022-08-26T21:48:18.448Z,95706.75
2022-08-26T21:50:21.285Z,95711.31
2022-08-26T21:52:25.437Z,95712.25
2022-08-26T21:54:28.192Z,95712.91
2022-08-26T21:56:34.490Z,95722.75
2022-08-26T21:58:37.513Z,95719.53
2022-08-26T22:00:46.515Z,95728.84
2022-08-26T22:02:50.176Z,95729.63
2022-08-26T22:04:52.972Z,95732.94
2022-08-26T22:06:58.887Z,95727.38
2022-08-26T22:09:01.832Z,95729.78
2022-08-26T22:11:05.516Z,95724.16
2022-08-26T22:13:10.775Z,95733.56
2022-08-26T22:15:14.175Z,95736.41
2022-08-26T22:17:16.931Z,95734.59
2022-08-26T22:19:20.919Z,95728.66
2022-08-26T22:21:28.558Z,95740.00
2022-08-26T22:23:31.378Z,95741.75
2022-08-26T22:25:34.602Z,95744.97
2022-08-26T22:27:40.442Z,95748.88
2022-08-26T22:29:47.905Z,95745.69
2022-08-26T22:31:50.882Z,95754.84
2022-08-26T22:33:53.847Z,95763.22
2022-08-26T22:35:56.959Z,95759.63
2022-08-26T22:38:00.464Z,95763.25
2022-08-26T22:40:03.826Z,95748.88
2022-08-26T22:42:07.146Z,95773.19
2022-08-26T22:44:11.560Z,95775.75
2022-08-26T22:46:19.038Z,95778.38
2022-08-26T22:48:24.221Z,95710.44
2022-08-26T22:50:27.311Z,95785.69
2022-08-26T22:52:30.057Z,95770.44
2022-08-26T22:54:32.978Z,95695.00
2022-08-26T22:56:36.828Z,95776.25
2022-08-26T22:58:39.843Z,95770.16
2022-08-26T23:00:43.135Z,95775.59
2022-08-26T23:02:48.205Z,95767.38
2022-08-26T23:04:51.163Z,95779.22
2022-08-26T23:06:53.960Z,95775.69
2022-08-26T23:08:56.705Z,95776.84
2022-08-26T23:10:59.427Z,95747.47
2022-08-26T23:13:04.174Z,95770.56
2022-08-26T23:15:09.138Z,95774.44
2022-08-26T23:17:14.286Z,95777.06
2022-08-26T23:19:20.528Z,95763.22
2022-08-26T23:21:23.349Z,95764.03
2022-08-26T23:23:27.582Z,95757.94
2022-08-26T23:25:32.307Z,95766.91
2022-08-26T23:27:35.690Z,95759.84
2022-08-26T23:29:39.606Z,95756.44
2022-08-26T23:31:43.571Z,95756.44
2022-08-26T23:34:04.262Z,95753.25
2022-08-26T23:36:09.571Z,95753.22
2022-08-26T23:38:14.247Z,95749.69
2022-08-26T23:40:20.445Z,95748.91
2022-08-26T23:42:23.338Z,95749.22
2022-08-26T23:44:26.623Z,95744.22
2022-08-26T23:46:29.438Z,95742.16
2022-08-26T23:48:32.340Z,95740.22
2022-08-26T23:50:52.884Z,95739.72
2022-08-26T23:53:08.967Z,95740.84
2022-08-26T23:55:13.293Z,95736.28
2022-08-26T23:57:17.610Z,95763.66
2022-08-26T23:59:20.604Z,95740.72
